sim
Sign-in with your pilot id or email,
or register
Callsign
Passwort

Schedule Details

Flight Number: EWG7526 (1)
Departure: Hamburg Airport (EDDH) at 10:15
Arrival: Fuerteventura Airport (GCFV) at 15:20
Route: Eurowings Passenger Schedule. Enter filed route here before submitting Pirep.

Weather Information
Getting current METAR information for EDDH 231120Z 26006KT 140V300 9999 FEW040 27/16 Q1021 NOSIG
Getting current METAR information for GCFV 231100Z 06015KT 9999 FEW020 24/19 Q1017

Schedule Frequency

Route Map